createdAt,value
2023-05-05T00:02:11.596Z,100.00
2023-05-05T00:05:38.812Z,100.00
2023-05-05T00:08:42.246Z,100.00
2023-05-05T00:12:05.582Z,100.00
2023-05-05T00:15:50.335Z,100.00
2023-05-05T00:19:14.266Z,100.00
2023-05-05T00:22:37.148Z,100.00
2023-05-05T00:25:44.531Z,100.00
2023-05-05T00:29:08.013Z,100.00
2023-05-05T00:33:11.216Z,100.00
2023-05-05T00:36:33.772Z,100.00
2023-05-05T00:39:56.937Z,100.00
2023-05-05T00:43:19.589Z,100.00
2023-05-05T00:47:14.324Z,100.00
2023-05-05T00:50:57.168Z,100.00
2023-05-05T00:54:22.820Z,100.00
2023-05-05T00:57:48.741Z,100.00
2023-05-05T01:01:39.884Z,100.00
2023-05-05T01:04:43.561Z,100.00
2023-05-05T01:08:32.477Z,100.00
2023-05-05T01:11:41.678Z,100.00
2023-05-05T01:15:14.890Z,100.00
2023-05-05T01:18:52.349Z,100.00
2023-05-05T01:22:27.094Z,100.00
2023-05-05T01:26:33.089Z,100.00
2023-05-05T01:30:22.786Z,100.00
2023-05-05T01:33:58.297Z,100.00
2023-05-05T01:37:14.105Z,100.00
2023-05-05T01:40:24.405Z,100.00
2023-05-05T01:44:29.050Z,100.00
2023-05-05T01:47:53.772Z,100.00
2023-05-05T01:51:57.802Z,100.00
2023-05-05T01:55:41.000Z,100.00
2023-05-05T01:59:05.648Z,100.00
2023-05-05T02:02:29.077Z,100.00
2023-05-05T02:06:09.740Z,100.00
2023-05-05T02:09:33.009Z,100.00
2023-05-05T02:13:36.926Z,100.00
2023-05-05T02:17:04.269Z,100.00
2023-05-05T02:20:47.507Z,100.00
2023-05-05T02:23:52.095Z,100.00
2023-05-05T02:27:10.805Z,100.00
2023-05-05T02:30:36.895Z,100.00
2023-05-05T02:34:07.412Z,100.00
2023-05-05T02:37:30.569Z,100.00
2023-05-05T02:41:18.594Z,100.00
2023-05-05T02:44:44.166Z,100.00
2023-05-05T02:48:04.251Z,100.00
2023-05-05T02:51:27.798Z,100.00
2023-05-05T02:55:47.651Z,100.00
2023-05-05T02:59:33.993Z,100.00
2023-05-05T03:02:52.044Z,100.00
2023-05-05T06:29:12.317Z,64.67
2023-05-05T06:32:20.410Z,75.34
2023-05-05T06:35:23.330Z,64.93
2023-05-05T06:38:27.970Z,71.51
2023-05-05T06:41:31.391Z,71.83
2023-05-05T06:44:42.533Z,64.62
2023-05-05T06:47:45.272Z,64.43
2023-05-05T06:50:49.341Z,63.28
2023-05-05T06:53:53.035Z,62.99
2023-05-05T06:57:06.506Z,64.09
2023-05-05T07:00:17.864Z,62.96
2023-05-05T07:03:25.536Z,55.59
2023-05-05T07:06:38.222Z,58.16
2023-05-05T07:09:41.696Z,55.06
2023-05-05T07:12:44.503Z,63.48
2023-05-05T07:15:52.326Z,52.79
2023-05-05T07:19:00.905Z,55.63
2023-05-05T07:22:12.454Z,48.73
2023-05-05T07:25:19.208Z,60.01
2023-05-05T07:28:26.865Z,59.38
2023-05-05T07:31:33.339Z,49.65
2023-05-05T07:34:38.025Z,47.98
2023-05-05T07:37:46.076Z,66.57
2023-05-05T07:40:49.058Z,56.00
2023-05-05T07:43:51.867Z,57.61
2023-05-05T07:46:54.829Z,59.04
2023-05-05T07:50:02.258Z,59.95
2023-05-05T07:53:16.079Z,61.95
2023-05-05T07:56:20.471Z,59.37
2023-05-05T07:59:24.951Z,57.33
2023-05-05T08:02:27.712Z,61.08
2023-05-05T08:05:34.829Z,65.74
2023-05-05T08:08:37.989Z,61.53
2023-05-05T08:11:42.174Z,54.53
2023-05-05T08:14:45.332Z,56.87
2023-05-05T08:17:50.888Z,63.07
2023-05-05T08:20:54.740Z,60.58
2023-05-05T08:24:02.131Z,64.19
2023-05-05T08:27:05.888Z,60.63
2023-05-05T08:30:10.912Z,64.51
2023-05-05T08:33:18.274Z,57.60
2023-05-05T08:36:23.648Z,66.31
2023-05-05T08:39:47.444Z,65.95
2023-05-05T08:42:50.640Z,59.54
2023-05-05T08:45:56.357Z,58.95
2023-05-05T08:49:03.374Z,59.04
2023-05-05T08:52:10.436Z,59.03
2023-05-05T08:55:24.550Z,55.27
2023-05-05T08:58:30.578Z,63.67
2023-05-05T09:01:36.252Z,59.42
2023-05-05T09:04:39.623Z,61.18
2023-05-05T09:07:44.101Z,60.42
2023-05-05T09:10:49.132Z,61.86
2023-05-05T09:13:52.178Z,61.13
2023-05-05T09:16:55.059Z,54.71
2023-05-05T09:20:02.556Z,60.59
2023-05-05T09:23:12.402Z,55.72
2023-05-05T09:26:15.722Z,63.69
2023-05-05T10:54:38.331Z,47.35
2023-05-05T10:57:45.540Z,46.36
2023-05-05T11:00:50.318Z,48.05
2023-05-05T11:04:16.843Z,50.12
2023-05-05T11:07:23.778Z,51.28
2023-05-05T11:10:26.895Z,47.34
2023-05-05T11:13:30.179Z,48.05
2023-05-05T11:16:47.828Z,45.92
2023-05-05T11:19:52.295Z,50.88
2023-05-05T11:23:05.355Z,47.25
2023-05-05T11:26:09.011Z,46.60
2023-05-05T11:29:12.069Z,49.47
2023-05-05T11:32:16.052Z,44.56
2023-05-05T11:36:01.333Z,47.53
2023-05-05T11:39:12.922Z,44.66
2023-05-05T11:42:28.160Z,44.17
2023-05-05T11:45:31.151Z,45.79
2023-05-05T11:48:47.204Z,48.47
2023-05-05T11:52:04.834Z,48.62
2023-05-05T11:55:08.301Z,46.04
2023-05-05T11:58:21.073Z,46.94
2023-05-05T12:01:24.112Z,50.67
2023-05-05T12:04:27.408Z,45.80
2023-05-05T12:07:31.803Z,48.67
2023-05-05T12:10:34.831Z,45.45
2023-05-05T12:13:37.832Z,45.86
2023-05-05T12:16:41.059Z,44.42
2023-05-05T12:19:49.286Z,43.25
2023-05-05T12:22:59.832Z,46.06
2023-05-05T12:26:02.852Z,49.98
2023-05-05T12:29:05.934Z,44.23
2023-05-05T12:32:18.958Z,45.31
2023-05-05T12:35:22.546Z,45.33
2023-05-05T12:38:25.396Z,43.16
2023-05-05T12:41:28.651Z,42.61
2023-05-05T12:44:36.470Z,41.15
2023-05-05T12:47:44.037Z,48.26
2023-05-05T12:50:46.872Z,45.18
2023-05-05T12:54:02.190Z,46.65
2023-05-05T12:57:11.520Z,42.78
2023-05-05T13:00:16.709Z,41.53
2023-05-05T13:03:20.314Z,42.90
2023-05-05T13:06:27.805Z,43.10
2023-05-05T13:09:30.780Z,41.26
2023-05-05T13:12:34.118Z,42.73
2023-05-05T13:15:36.792Z,43.75
2023-05-05T13:18:47.038Z,43.46
2023-05-05T13:21:50.048Z,45.43
2023-05-05T13:24:53.113Z,42.17
2023-05-05T13:27:55.762Z,43.43
2023-05-05T13:30:58.817Z,42.88
2023-05-05T13:34:03.038Z,43.80
2023-05-05T13:37:06.590Z,42.68
2023-05-05T13:40:10.878Z,41.11
2023-05-05T13:43:14.015Z,45.98
2023-05-05T13:46:20.110Z,42.20
2023-05-05T13:49:23.877Z,43.43
2023-05-05T13:52:46.533Z,41.98
2023-05-05T13:55:49.719Z,41.48
2023-05-05T13:58:52.397Z,48.13
2023-05-05T14:01:56.040Z,45.86
2023-05-05T14:05:00.046Z,45.63
2023-05-05T14:08:03.021Z,47.08
2023-05-05T14:11:06.162Z,46.80
2023-05-05T14:14:09.422Z,45.75
2023-05-05T14:17:12.900Z,45.69
2023-05-05T14:20:16.282Z,47.45
2023-05-05T14:23:19.380Z,45.09
2023-05-05T14:26:22.190Z,45.57
2023-05-05T14:29:25.723Z,45.96
2023-05-05T14:32:30.431Z,45.69
2023-05-05T14:35:33.463Z,47.22
2023-05-05T14:38:36.955Z,48.05
2023-05-05T14:41:40.186Z,48.52
2023-05-05T14:44:44.858Z,46.87
2023-05-05T14:47:48.548Z,47.01
2023-05-05T14:50:51.286Z,46.29
2023-05-05T14:53:54.609Z,46.03
2023-05-05T14:56:58.425Z,45.55
2023-05-05T15:00:21.659Z,44.94
2023-05-05T15:03:24.779Z,46.01
2023-05-05T15:06:28.551Z,44.39
2023-05-05T15:09:33.510Z,44.23
2023-05-05T15:12:43.138Z,45.79
2023-05-05T15:15:46.385Z,45.76
2023-05-05T15:18:49.530Z,44.47
2023-05-05T15:21:54.186Z,44.79
2023-05-05T15:24:58.029Z,45.35
2023-05-05T15:28:01.081Z,45.00
2023-05-05T15:31:06.343Z,48.07
2023-05-05T15:34:09.685Z,43.87
2023-05-05T15:37:29.057Z,45.18
2023-05-05T15:40:33.559Z,46.99
2023-05-05T15:43:41.915Z,45.47
2023-05-05T15:46:46.222Z,46.37
2023-05-05T15:49:50.021Z,46.41
2023-05-05T15:53:16.658Z,48.52
2023-05-05T15:56:29.576Z,47.39
2023-05-05T15:59:32.448Z,46.45
2023-05-05T16:02:36.446Z,46.43
2023-05-05T16:05:39.483Z,47.11
2023-05-05T16:08:42.247Z,45.44
2023-05-05T16:11:45.374Z,46.70
2023-05-05T16:14:48.293Z,45.54
2023-05-05T16:17:51.559Z,47.41
2023-05-05T16:20:59.585Z,48.05
2023-05-05T16:24:02.919Z,46.98
2023-05-05T16:27:05.665Z,48.48
2023-05-05T16:30:10.335Z,48.46
2023-05-05T16:33:17.077Z,50.07
2023-05-05T16:36:40.092Z,49.40
2023-05-05T16:39:42.798Z,47.36
2023-05-05T16:42:46.392Z,46.16
2023-05-05T16:46:06.818Z,45.92
2023-05-05T16:49:10.511Z,43.84
2023-05-05T16:52:13.371Z,48.44
2023-05-05T16:55:16.436Z,45.95
2023-05-05T16:58:20.414Z,47.50
2023-05-05T17:01:23.976Z,47.57
2023-05-05T17:04:27.633Z,49.71
2023-05-05T17:07:32.868Z,50.58
2023-05-05T17:10:35.854Z,49.95
2023-05-05T17:13:39.670Z,51.78
2023-05-05T17:16:42.698Z,54.65
2023-05-05T17:19:46.394Z,55.44
2023-05-05T17:22:50.085Z,57.04
2023-05-05T17:26:13.221Z,58.11
2023-05-05T17:29:21.656Z,60.08
2023-05-05T17:32:26.153Z,61.54
2023-05-05T17:35:29.836Z,64.56
2023-05-05T17:38:33.666Z,68.00
2023-05-05T17:41:37.453Z,73.67
2023-05-05T17:44:40.760Z,76.89
2023-05-05T17:47:43.528Z,77.69
2023-05-05T17:51:27.485Z,80.51
2023-05-05T17:54:48.830Z,82.82
2023-05-05T17:57:51.857Z,83.56
2023-05-05T18:01:23.258Z,84.99
2023-05-05T18:05:06.508Z,88.70
2023-05-05T18:08:14.153Z,89.39
2023-05-05T18:11:17.580Z,91.19
2023-05-05T18:14:40.198Z,92.65
2023-05-05T18:18:03.616Z,95.00
2023-05-05T19:13:41.067Z,100.00
2023-05-05T19:16:48.565Z,100.00
2023-05-05T19:19:51.779Z,100.00
2023-05-05T19:22:55.825Z,100.00
2023-05-05T19:25:59.617Z,100.00
2023-05-05T19:29:32.116Z,100.00
2023-05-05T19:32:54.799Z,100.00
2023-05-05T19:36:19.312Z,100.00
2023-05-05T19:39:22.270Z,100.00
2023-05-05T19:42:26.235Z,100.00
2023-05-05T19:45:53.359Z,100.00
2023-05-05T19:48:57.180Z,100.00
2023-05-05T19:52:00.344Z,100.00
2023-05-05T19:55:46.791Z,100.00
2023-05-05T19:58:59.263Z,100.00
2023-05-05T20:02:27.363Z,100.00
2023-05-05T20:05:49.777Z,100.00
2023-05-05T20:08:56.205Z,100.00
2023-05-05T20:12:55.353Z,100.00
2023-05-05T20:16:18.582Z,100.00
2023-05-05T20:19:22.922Z,100.00
2023-05-05T20:22:41.803Z,100.00
2023-05-05T20:25:44.945Z,100.00
2023-05-05T20:28:51.372Z,100.00
2023-05-05T20:31:55.832Z,100.00
2023-05-05T20:35:34.589Z,100.00
2023-05-05T20:38:58.556Z,100.00
2023-05-05T20:42:02.795Z,100.00
2023-05-05T20:45:08.216Z,100.00
2023-05-05T20:48:31.944Z,100.00
2023-05-05T20:51:55.062Z,100.00
2023-05-05T20:54:58.312Z,100.00
2023-05-05T20:58:03.457Z,100.00
2023-05-05T21:01:07.045Z,100.00
2023-05-05T21:04:13.876Z,100.00
2023-05-05T21:07:36.883Z,100.00
2023-05-05T21:10:44.529Z,100.00
